Cloquet, MN

7:07 AM CST on December 08, 2019 (GMT -0600)
Cloquet Carlton County

Weather History for KCOQ - October, 2019

Change the Weather History Date:

Friday, October 25, 2019

  Actual Average Record
Temperature  
Mean Temperature 38 °F -  
Max Temperature 51 °F 46 °F 62 °F (2000)
Min Temperature 26 °F 32 °F 26 °F (1997)
Degree Days  
Heating Degree Days 26    
Moisture  
Dew Point 24 °F    
Average Humidity 58    
Maximum Humidity 80    
Minimum Humidity 35    
Precipitation  
Precipitation 0.00 in - - ()
Sea Level Pressure  
Sea Level Pressure 30.10 in    
Wind  
Wind Speed 7 mph ()    
Max Wind Speed 18 mph    
Max Gust Speed 24 mph    
Visibility 10.0 miles    
Events      
Averages and records for this station are not official NWS values.
T = Trace of Precipitation, MM = Missing Value Source: Averaged Metar Reports

Daily Weather History Graph

Daily Weather History Graph

Search for Another Location

Airport or City:

Astronomy

Oct. 25, 2019 Rise Set
Actual Time 7:41 AM CDT 6:05 PM CDT
Civil Twilight 7:10 AM CDT 6:36 PM CDT
Nautical Twilight 6:35 AM CDT 7:12 PM CDT
Astronomical Twilight 6:00 AM CDT 7:47 PM CDT
Moon 4:07 AM CDT (10/25) 5:22 PM CDT (10/25)
Length of Visible Light 11h 26m
Length of Day
10h 24m
Waning Crescent, 9% of the Moon is Illuminated
Oct 25
Waning Crescent
Oct 27
New
Nov 4
First Quarter
Nov 12
Full
Nov 19
Last Quarter

Hourly Weather History & Observations

Time (CDT) Temp. Windchill Dew Point Humidity Pressure Visibility Wind Dir Wind Speed Gust Speed Precip Events Conditions
12:15 AM 30.2 °F 25.4 °F 19.4 °F 64% 30.27 in 10.0 mi SW 4.6 mph - N/A   Clear
12:16 AM 30.2 °F 25.4 °F 19.4 °F 64% 30.27 in 10.0 mi SW 4.6 mph - N/A   Clear
12:35 AM 30.2 °F 24.3 °F 19.4 °F 64% 30.27 in 10.0 mi SW 5.8 mph - N/A   Clear
12:55 AM 30.2 °F 26.7 °F 19.4 °F 64% 30.26 in 10.0 mi SSW 3.5 mph - N/A   Clear
1:15 AM 28.4 °F 24.6 °F 19.4 °F 69% 30.25 in 10.0 mi SW 3.5 mph - N/A   Clear
1:35 AM 28.4 °F 24.6 °F 19.4 °F 69% 30.25 in 10.0 mi SSW 3.5 mph - N/A   Clear
1:55 AM 28.4 °F 24.6 °F 21.2 °F 74% 30.25 in 10.0 mi SSW 3.5 mph - N/A   Clear
1:56 AM 28.4 °F 24.6 °F 21.2 °F 74% 30.25 in 10.0 mi SSW 3.5 mph - N/A   Clear
2:15 AM 28.4 °F 23.3 °F 21.2 °F 74% 30.24 in 10.0 mi SW 4.6 mph - N/A   Clear
2:35 AM 26.6 °F 21.2 °F 21.2 °F 80% 30.24 in 10.0 mi SSW 4.6 mph - N/A   Clear
2:36 AM 26.6 °F 21.2 °F 21.2 °F 80% 30.24 in 10.0 mi SSW 4.6 mph - N/A   Clear
2:55 AM 26.6 °F 21.2 °F 21.2 °F 80% 30.24 in 10.0 mi SW 4.6 mph - N/A   Clear
3:15 AM 28.4 °F 23.3 °F 21.2 °F 74% 30.24 in 10.0 mi SW 4.6 mph - N/A   Clear
3:35 AM 28.4 °F 22.2 °F 21.2 °F 74% 30.23 in 10.0 mi SSW 5.8 mph - N/A   Clear
3:36 AM 28.4 °F 23.3 °F 21.2 °F 74% 30.23 in 10.0 mi SSW 4.6 mph - N/A   Clear
3:55 AM 28.4 °F 21.2 °F 21.2 °F 74% 30.23 in 10.0 mi SW 6.9 mph - N/A   Clear
4:15 AM 28.4 °F 23.3 °F 21.2 °F 74% 30.22 in 10.0 mi SSW 4.6 mph - N/A   Clear
4:16 AM 28.4 °F 22.2 °F 21.2 °F 74% 30.22 in 10.0 mi SSW 5.8 mph - N/A   Clear
4:35 AM 28.4 °F 21.2 °F 21.2 °F 74% 30.22 in 10.0 mi SSW 6.9 mph - N/A   Clear
4:55 AM 28.4 °F 22.2 °F 21.2 °F 74% 30.22 in 10.0 mi SW 5.8 mph - N/A   Clear
5:15 AM 28.4 °F 22.2 °F 21.2 °F 74% 30.22 in 10.0 mi SSW 5.8 mph - N/A   Clear
5:16 AM 28.4 °F 22.2 °F 21.2 °F 74% 30.22 in 10.0 mi SSW 5.8 mph - N/A   Clear
5:35 AM 28.4 °F 21.2 °F 21.2 °F 74% 30.22 in 10.0 mi SSW 6.9 mph - N/A   Clear
5:55 AM 28.4 °F 21.2 °F 21.2 °F 74% 30.21 in 10.0 mi SSW 6.9 mph - N/A   Scattered Clouds
5:56 AM 28.4 °F 21.2 °F 21.2 °F 74% 30.21 in 10.0 mi SSW 6.9 mph - N/A   Scattered Clouds
6:15 AM 28.4 °F 20.4 °F 21.2 °F 74% 30.21 in 10.0 mi SSW 8.1 mph - N/A   Mostly Cloudy
6:35 AM 28.4 °F 20.4 °F 21.2 °F 74% 30.21 in 10.0 mi SSW 8.1 mph - N/A   Scattered Clouds
6:36 AM 28.4 °F 21.2 °F 21.2 °F 74% 30.21 in 10.0 mi SSW 6.9 mph - N/A   Scattered Clouds
6:55 AM 28.4 °F 21.2 °F 21.2 °F 74% 30.20 in 10.0 mi SSW 6.9 mph - N/A   Clear
7:15 AM 28.4 °F 21.2 °F 21.2 °F 74% 30.20 in 10.0 mi SSW 6.9 mph - N/A   Clear
7:35 AM 26.6 °F 20.0 °F 21.2 °F 80% 30.18 in 10.0 mi South 5.8 mph - N/A   Clear
7:36 AM 26.6 °F 20.0 °F 21.2 °F 80% 30.18 in 10.0 mi South 5.8 mph - N/A   Clear
7:55 AM 26.6 °F 21.2 °F 21.2 °F 80% 30.18 in 10.0 mi South 4.6 mph - N/A   Clear
8:15 AM 28.4 °F 21.2 °F 23.0 °F 80% 30.18 in 10.0 mi SSW 6.9 mph - N/A   Clear
8:16 AM 28.4 °F 20.4 °F 23.0 °F 80% 30.18 in 10.0 mi SSW 8.1 mph - N/A   Clear
8:35 AM 28.4 °F 20.4 °F 23.0 °F 80% 30.19 in 10.0 mi South 8.1 mph - N/A   Clear
8:55 AM 30.2 °F 24.3 °F 24.8 °F 80% 30.18 in 10.0 mi South 5.8 mph - N/A   Mostly Cloudy
9:35 AM 30.2 °F 24.3 °F 24.8 °F 80% 30.17 in 10.0 mi South 5.8 mph - N/A   Scattered Clouds
9:55 AM 33.8 °F 27.0 °F 26.6 °F 75% 30.17 in 10.0 mi SSW 8.1 mph - N/A   Clear
9:56 AM 33.8 °F 27.0 °F 26.6 °F 75% 30.17 in 10.0 mi SSW 8.1 mph - N/A   Clear
10:15 AM 35.6 °F 28.0 °F 26.6 °F 70% 30.16 in 10.0 mi South 10.4 mph - N/A   Clear
10:16 AM 35.6 °F 28.0 °F 26.6 °F 70% 30.16 in 10.0 mi South 10.4 mph - N/A   Clear
10:35 AM 37.4 °F 30.3 °F 26.6 °F 65% 30.15 in 10.0 mi South 10.4 mph - N/A   Clear
10:55 AM 39.2 °F 31.6 °F 26.6 °F 61% 30.14 in 10.0 mi SSW 12.7 mph 18.4 mph N/A   Clear
10:56 AM 39.2 °F 32.5 °F 26.6 °F 61% 30.14 in 10.0 mi South 10.4 mph 18.4 mph N/A   Clear
11:15 AM 41.0 °F 33.9 °F 26.6 °F 57% 30.13 in 10.0 mi SSW 12.7 mph 18.4 mph N/A   Clear
11:35 AM 42.8 °F 36.6 °F 26.6 °F 53% 30.12 in 10.0 mi South 11.5 mph - N/A   Clear
11:36 AM 42.8 °F 36.2 °F 26.6 °F 53% 30.12 in 10.0 mi SSW 12.7 mph - N/A   Clear
11:55 AM 44.6 °F 38.1 °F 26.6 °F 49% 30.11 in 10.0 mi South 13.8 mph 23.0 mph N/A   Clear
12:15 PM 44.6 °F 37.2 °F 26.6 °F 49% 30.11 in 10.0 mi SSW 17.3 mph 24.2 mph N/A   Clear
12:35 PM 44.6 °F 38.1 °F 26.6 °F 49% 30.10 in 10.0 mi SSW 13.8 mph 21.9 mph N/A   Clear
12:36 PM 44.6 °F 38.1 °F 26.6 °F 49% 30.10 in 10.0 mi SSW 13.8 mph 21.9 mph N/A   Clear
12:55 PM 46.4 °F 39.2 °F 26.6 °F 46% 30.09 in 10.0 mi SSW 18.4 mph 24.2 mph N/A   Clear
1:15 PM 46.4 °F 39.8 °F 26.6 °F 46% 30.08 in 10.0 mi SSW 16.1 mph 19.6 mph N/A   Clear
1:35 PM 48.2 °F - 26.6 °F 43% 30.07 in 10.0 mi SSW 13.8 mph 19.6 mph N/A   Clear
1:55 PM 48.2 °F - 26.6 °F 43% 30.06 in 10.0 mi SW 13.8 mph 23.0 mph N/A   Clear
2:15 PM 48.2 °F - 24.8 °F 40% 30.04 in 10.0 mi SW 12.7 mph 24.2 mph N/A   Clear
2:16 PM 48.2 °F - 24.8 °F 40% 30.04 in 10.0 mi SW 11.5 mph 24.2 mph N/A   Clear
2:35 PM 50.0 °F - 24.8 °F 37% 30.03 in 10.0 mi SSW 12.7 mph 21.9 mph N/A   Clear
2:55 PM 51.8 °F - 24.8 °F 35% 30.02 in 10.0 mi SSW 12.7 mph 21.9 mph N/A   Clear
2:56 PM 51.8 °F - 24.8 °F 35% 30.02 in 10.0 mi SSW 15.0 mph 21.9 mph N/A   Clear
3:15 PM 51.8 °F - 24.8 °F 35% 30.01 in 10.0 mi SSW 13.8 mph 21.9 mph N/A   Clear
3:35 PM 51.8 °F - 24.8 °F 35% 30.00 in 10.0 mi SSW 15.0 mph 18.4 mph N/A   Clear
3:36 PM 51.8 °F - 24.8 °F 35% 30.00 in 10.0 mi SSW 15.0 mph 20.7 mph N/A   Clear
3:55 PM 51.8 °F - 24.8 °F 35% 29.99 in 10.0 mi South 15.0 mph 20.7 mph N/A   Clear
3:56 PM 51.8 °F - 24.8 °F 35% 29.99 in 10.0 mi SSW 15.0 mph 20.7 mph N/A   Clear
4:15 PM 51.8 °F - 24.8 °F 35% 29.99 in 10.0 mi SSW 12.7 mph 17.3 mph N/A   Clear
4:16 PM 51.8 °F - 24.8 °F 35% 29.99 in 10.0 mi SSW 10.4 mph 17.3 mph N/A   Clear
4:35 PM 51.8 °F - 24.8 °F 35% 29.98 in 10.0 mi SSW 8.1 mph 17.3 mph N/A   Clear
4:36 PM 51.8 °F - 24.8 °F 35% 29.98 in 10.0 mi South 10.4 mph 17.3 mph N/A   Clear
4:55 PM 51.8 °F - 24.8 °F 35% 29.98 in 10.0 mi SSW 11.5 mph - N/A   Clear
5:15 PM 51.8 °F - 24.8 °F 35% 29.98 in 10.0 mi SSW 15.0 mph 19.6 mph N/A   Clear
5:35 PM 50.0 °F - 24.8 °F 37% 29.98 in 10.0 mi SSW 10.4 mph 21.9 mph N/A   Clear
5:36 PM 50.0 °F - 24.8 °F 37% 29.98 in 10.0 mi SSW 11.5 mph 21.9 mph N/A   Clear
6:15 PM 48.2 °F - 26.6 °F 43% 29.97 in 10.0 mi South 8.1 mph - N/A   Clear
6:35 PM 46.4 °F 42.4 °F 26.6 °F 46% 29.97 in 10.0 mi South 8.1 mph - N/A   Clear
6:55 PM 46.4 °F 42.4 °F 26.6 °F 46% 29.96 in 10.0 mi South 8.1 mph - N/A   Clear
7:15 PM 46.4 °F 42.9 °F 26.6 °F 46% 29.96 in 10.0 mi South 6.9 mph - N/A   Clear
7:16 PM 46.4 °F 43.5 °F 26.6 °F 46% 29.96 in 10.0 mi South 5.8 mph - N/A   Clear
7:35 PM 44.6 °F 40.2 °F 26.6 °F 49% 29.96 in 10.0 mi South 8.1 mph - N/A   Clear
7:55 PM 44.6 °F 40.2 °F 26.6 °F 49% 29.95 in 10.0 mi South 8.1 mph - N/A   Clear
8:15 PM 44.6 °F 39.7 °F 26.6 °F 49% 29.95 in 10.0 mi South 9.2 mph - N/A   Clear
8:35 PM 44.6 °F 39.2 °F 26.6 °F 49% 29.95 in 10.0 mi South 10.4 mph - N/A   Clear
8:55 PM 44.6 °F 39.2 °F 28.4 °F 53% 29.95 in 10.0 mi South 10.4 mph - N/A   Clear
9:15 PM 44.6 °F 39.7 °F 28.4 °F 53% 29.95 in 10.0 mi South 9.2 mph - N/A   Clear
9:35 PM 44.6 °F 40.7 °F 28.4 °F 53% 29.95 in 10.0 mi South 6.9 mph - N/A   Clear
9:36 PM 44.6 °F 40.2 °F 28.4 °F 53% 29.95 in 10.0 mi South 8.1 mph - N/A   Clear
10:15 PM 44.6 °F 40.7 °F 28.4 °F 53% 29.93 in 10.0 mi South 6.9 mph - N/A   Clear
10:35 PM 44.6 °F 39.7 °F 28.4 °F 53% 29.94 in 10.0 mi South 9.2 mph - N/A   Clear
10:55 PM 44.6 °F 39.7 °F 28.4 °F 53% 29.94 in 10.0 mi South 9.2 mph - N/A   Clear
11:15 PM 42.8 °F 37.5 °F 28.4 °F 57% 29.94 in 10.0 mi South 9.2 mph - N/A   Clear
11:16 PM 44.6 °F 39.2 °F 28.4 °F 53% 29.94 in 10.0 mi South 10.4 mph - N/A   Clear
11:35 PM 44.6 °F 39.7 °F 28.4 °F 53% 29.94 in 10.0 mi SSW 9.2 mph - N/A   Clear
11:55 PM 44.6 °F 39.2 °F 28.4 °F 53% 29.93 in 10.0 mi SSW 10.4 mph - N/A   Clear